Pagrindinis puslapis
METAR-TAF:

METAR-TAF

Oro uostai :

Džabalpuras, Indija

platuma: 23-10-54N, ilguma: 80-03-31E, Aukštis: 495 m

Dabartinis oras

Ataskaita buvo paskelbta 3 valandos ir 1 minutes, ne 03:00 UTC
Vėjas 15 kt iš Pietų
Temperatūra 32°C
Drėgmė 38%
Slėgis 1009 hPa
Matomumas: 5000 m
Mažai debesys ne aukštis 3000 ft
migla

METAR: VAJB 300300Z 19015KT 5000 HZ FEW030 32/16 Q1009

Laikas: 11:31 (06:01 UTC)

Prognozė

Ataskaita buvo paskelbta 28 valandos ir 1 minutes, ne 02:00 UTC
Prognozė galioja nuo 29 metu 03 UTC su 29 metu 12 UTC
Vėjas 12 kt iš Vakarų/Pietvakarių
Matomumas: 4000 m
migla
Tapsmas
nuo 29 metu 06 UTC su 29 metu 08 UTC
Vėjas 14 kt iš Vakarų

TAF: VAJB 290200Z 2903/2912 25012KT 4000 HZ NSC BECMG 2906/2908 27014KT

Orai ataskaitas ir orų prognozės (METAR, TAF).

turimą stotys yra geltonos ir raudonos taškus žemėlapyje.

Perkelti pele per norėdami pamatyti stoties vardą.

Tada spustelėkite, norėdami matyti oro stebėjimo ir prognozės.

Norėdami pakeisti žemėlapį: spustelėkite ant žalios mygtukų su juodo kryžiaus žemyn,; žalią mygtuką su brūkšneliu, jei norite nutolinti; arba žalių rodyklių gretimoms žemėlapius.


METAR-TAF: